createdAt,value
2019-05-18T00:00:25.451Z,90
2019-05-18T00:01:01.360Z,90
2019-05-18T00:01:37.323Z,90
2019-05-18T00:02:13.275Z,90
2019-05-18T00:02:49.365Z,90
2019-05-18T00:03:25.334Z,90
2019-05-18T00:04:01.317Z,90
2019-05-18T00:04:37.378Z,90
2019-05-18T00:05:13.421Z,90
2019-05-18T00:05:49.448Z,90
2019-05-18T00:06:25.308Z,90
2019-05-18T00:07:01.295Z,90
2019-05-18T00:07:37.361Z,90
2019-05-18T00:08:13.357Z,90
2019-05-18T00:08:49.300Z,90
2019-05-18T00:09:25.269Z,90
2019-05-18T00:10:01.359Z,90
2019-05-18T00:10:37.382Z,90
2019-05-18T00:11:13.450Z,90
2019-05-18T00:11:49.260Z,90
2019-05-18T00:12:25.431Z,90
2019-05-18T00:13:01.358Z,90
2019-05-18T00:13:37.293Z,90
2019-05-18T00:14:13.291Z,90
2019-05-18T00:14:49.429Z,90
2019-05-18T00:15:25.468Z,90
2019-05-18T00:16:01.300Z,91
2019-05-18T00:16:37.376Z,91
2019-05-18T00:17:25.873Z,91
2019-05-18T00:17:49.336Z,91
2019-05-18T00:18:25.291Z,91
2019-05-18T00:19:01.274Z,91
2019-05-18T00:19:37.354Z,91
2019-05-18T00:20:13.318Z,91
2019-05-18T00:20:49.281Z,91
2019-05-18T00:21:25.380Z,91
2019-05-18T00:22:01.464Z,91
2019-05-18T00:22:37.306Z,91
2019-05-18T00:23:13.290Z,91
2019-05-18T00:23:49.360Z,91
2019-05-18T00:24:25.408Z,91
2019-05-18T00:25:01.421Z,91
2019-05-18T00:25:37.274Z,91
2019-05-18T00:26:13.365Z,91
2019-05-18T00:26:49.338Z,91
2019-05-18T00:27:25.446Z,91
2019-05-18T00:28:01.291Z,91
2019-05-18T00:28:37.363Z,91
2019-05-18T00:29:13.343Z,91
2019-05-18T00:29:49.307Z,91
2019-05-18T00:30:25.436Z,91
2019-05-18T00:31:01.391Z,91
2019-05-18T00:31:37.433Z,91
2019-05-18T00:32:13.359Z,91
2019-05-18T00:32:49.318Z,91
2019-05-18T00:33:25.453Z,91
2019-05-18T00:34:01.338Z,91
2019-05-18T00:34:37.299Z,92
2019-05-18T00:35:13.267Z,91
2019-05-18T00:35:49.361Z,91
2019-05-18T00:36:25.332Z,91
2019-05-18T00:37:01.304Z,92
2019-05-18T00:37:37.278Z,91
2019-05-18T00:38:13.402Z,92
2019-05-18T00:38:49.350Z,92
2019-05-18T00:39:25.440Z,92
2019-05-18T00:40:01.264Z,92
2019-05-18T00:40:37.352Z,92
2019-05-18T00:41:13.328Z,92
2019-05-18T00:41:49.296Z,92
2019-05-18T00:42:25.252Z,92
2019-05-18T00:43:01.411Z,92
2019-05-18T00:43:37.325Z,92
2019-05-18T00:44:13.282Z,92
2019-05-18T00:44:49.270Z,92
2019-05-18T00:45:25.383Z,92
2019-05-18T00:46:01.315Z,92
2019-05-18T00:46:37.279Z,92
2019-05-18T00:47:13.250Z,92
2019-05-18T00:47:49.349Z,92
2019-05-18T00:48:25.358Z,92
2019-05-18T00:49:01.276Z,92
2019-05-18T00:49:37.251Z,92
2019-05-18T00:50:13.350Z,92
2019-05-18T00:50:49.314Z,92
2019-05-18T00:51:25.393Z,92
2019-05-18T00:52:01.249Z,92
2019-05-18T00:52:37.357Z,92
2019-05-18T00:53:13.316Z,92
2019-05-18T00:53:49.374Z,92
2019-05-18T00:54:25.237Z,92
2019-05-18T00:55:01.370Z,92
2019-05-18T00:55:37.299Z,92
2019-05-18T00:56:13.265Z,92
2019-05-18T00:56:49.274Z,92
2019-05-18T00:57:25.332Z,92
2019-05-18T00:58:01.298Z,92
2019-05-18T00:58:37.271Z,92
2019-05-18T00:59:16.697Z,92
2019-05-18T00:59:49.344Z,92
2019-05-18T01:00:25.311Z,92
2019-05-18T01:01:01.265Z,92
2019-05-18T01:01:37.374Z,92
2019-05-18T01:02:13.334Z,92
2019-05-18T01:02:49.297Z,92
2019-05-18T01:03:25.273Z,92
2019-05-18T01:04:01.372Z,92
2019-05-18T01:04:37.378Z,92
2019-05-18T01:05:13.307Z,92
2019-05-18T01:05:49.265Z,92
2019-05-18T01:06:25.400Z,92
2019-05-18T01:07:01.321Z,92
2019-05-18T01:07:37.304Z,92
2019-05-18T01:08:13.282Z,92
2019-05-18T01:08:49.335Z,92
2019-05-18T01:09:25.479Z,93
2019-05-18T01:10:01.298Z,92
2019-05-18T01:10:37.267Z,92
2019-05-18T01:11:13.347Z,92
2019-05-18T01:11:49.313Z,93
2019-05-18T01:12:25.292Z,92
2019-05-18T01:13:01.268Z,92
2019-05-18T01:13:37.358Z,92
2019-05-18T01:14:13.312Z,92
2019-05-18T01:14:49.390Z,92
2019-05-18T01:15:25.248Z,93
2019-05-18T01:16:01.340Z,93
2019-05-18T01:16:37.313Z,93
2019-05-18T01:17:13.278Z,93
2019-05-18T01:18:02.240Z,93
2019-05-18T01:19:01.310Z,93
2019-05-18T01:19:37.279Z,93
2019-05-18T01:20:13.270Z,93
2019-05-18T01:20:49.323Z,93
2019-05-18T01:21:25.300Z,93
2019-05-18T01:22:01.279Z,93
2019-05-18T01:22:37.248Z,93
2019-05-18T01:23:13.326Z,93
2019-05-18T01:23:49.298Z,93
2019-05-18T01:24:25.262Z,93
2019-05-18T01:25:01.240Z,93
2019-05-18T01:25:37.347Z,93
2019-05-18T01:26:13.300Z,93
2019-05-18T01:26:49.263Z,93
2019-05-18T01:27:25.230Z,93
2019-05-18T01:28:01.332Z,93
2019-05-18T01:28:37.319Z,93
2019-05-18T01:29:13.258Z,93
2019-05-18T01:29:49.224Z,93
2019-05-18T01:30:25.329Z,93
2019-05-18T01:31:01.300Z,93
2019-05-18T01:31:37.260Z,93
2019-05-18T01:32:13.239Z,93
2019-05-18T01:32:49.320Z,93
2019-05-18T01:33:25.302Z,93
2019-05-18T01:34:01.275Z,93
2019-05-18T01:34:37.223Z,93
2019-05-18T01:35:13.356Z,93
2019-05-18T01:35:49.294Z,94
2019-05-18T01:36:25.300Z,94
2019-05-18T01:37:01.337Z,94
2019-05-18T01:37:37.333Z,94
2019-05-18T01:38:13.295Z,93
2019-05-18T01:38:49.278Z,94
2019-05-18T01:39:25.348Z,94
2019-05-18T01:40:01.308Z,94
2019-05-18T01:40:37.280Z,94
2019-05-18T01:41:13.259Z,94
2019-05-18T01:41:49.359Z,94
2019-05-18T01:42:25.322Z,94
2019-05-18T01:43:01.287Z,94
2019-05-18T01:43:37.254Z,94
2019-05-18T01:44:13.346Z,94
2019-05-18T01:44:49.304Z,94
2019-05-18T01:45:25.270Z,94
2019-05-18T01:46:01.240Z,94
2019-05-18T01:46:37.345Z,94
2019-05-18T01:47:13.322Z,94
2019-05-18T01:47:49.276Z,94
2019-05-18T01:48:25.255Z,94
2019-05-18T01:49:01.326Z,94
2019-05-18T01:49:37.296Z,94
2019-05-18T01:50:13.274Z,94
2019-05-18T01:50:49.236Z,94
2019-05-18T01:51:25.340Z,94
2019-05-18T01:52:01.323Z,94
2019-05-18T01:52:37.291Z,94
2019-05-18T01:53:13.251Z,94
2019-05-18T01:53:49.331Z,94
2019-05-18T01:54:25.298Z,94
2019-05-18T01:55:01.271Z,94
2019-05-18T01:55:37.245Z,94
2019-05-18T01:56:13.338Z,94
2019-05-18T01:56:49.303Z,94
2019-05-18T01:57:25.314Z,94
2019-05-18T01:58:01.272Z,94
2019-05-18T01:58:37.347Z,94
2019-05-18T01:59:13.303Z,94
2019-05-18T01:59:49.278Z,94
2019-05-18T02:00:25.239Z,94
2019-05-18T02:01:01.327Z,94
2019-05-18T02:01:37.305Z,94
2019-05-18T02:02:13.287Z,94
2019-05-18T02:02:49.226Z,94
2019-05-18T02:03:26.604Z,94
2019-05-18T02:04:01.300Z,94
2019-05-18T02:04:37.264Z,94
2019-05-18T02:05:13.248Z,94
2019-05-18T02:05:49.358Z,94
2019-05-18T02:06:25.297Z,94
2019-05-18T02:07:01.267Z,94
2019-05-18T02:07:37.241Z,94
2019-05-18T02:08:13.360Z,94
2019-05-18T02:08:49.546Z,95
2019-05-18T02:09:25.256Z,95
2019-05-18T02:10:01.241Z,95
2019-05-18T02:10:37.362Z,95
2019-05-18T02:11:13.296Z,95
2019-05-18T02:11:49.258Z,95
2019-05-18T02:12:25.250Z,95
2019-05-18T02:13:01.315Z,95
2019-05-18T02:13:37.288Z,95
2019-05-18T02:14:13.267Z,95
2019-05-18T02:14:49.340Z,95
2019-05-18T02:15:25.333Z,95
2019-05-18T02:16:01.294Z,95
2019-05-18T02:16:37.269Z,95
2019-05-18T02:17:13.341Z,95
2019-05-18T02:17:49.326Z,95
2019-05-18T02:18:29.796Z,95
2019-05-18T02:19:01.259Z,95
2019-05-18T02:19:37.348Z,95
2019-05-18T02:20:13.315Z,95
2019-05-18T02:20:49.307Z,95
2019-05-18T02:21:25.239Z,95
2019-05-18T02:22:01.336Z,95
2019-05-18T02:22:37.312Z,95
2019-05-18T02:23:13.296Z,95
2019-05-18T02:23:49.249Z,95
2019-05-18T02:24:25.321Z,95
2019-05-18T02:25:01.317Z,95
2019-05-18T02:25:37.273Z,95
2019-05-18T02:26:13.256Z,95
2019-05-18T02:26:49.323Z,95
2019-05-18T02:27:25.295Z,95
2019-05-18T02:28:01.298Z,95
2019-05-18T02:28:37.234Z,95
2019-05-18T02:29:13.327Z,95
2019-05-18T02:29:49.294Z,95
2019-05-18T02:30:25.295Z,95
2019-05-18T02:31:01.347Z,95
2019-05-18T02:31:37.329Z,95
2019-05-18T02:32:13.299Z,95
2019-05-18T02:32:49.298Z,95
2019-05-18T02:33:25.301Z,95
2019-05-18T02:34:01.343Z,95
2019-05-18T02:34:37.303Z,95
2019-05-18T02:35:13.357Z,95
2019-05-18T02:35:49.264Z,95
2019-05-18T02:36:25.332Z,95
2019-05-18T02:37:01.313Z,95
2019-05-18T02:37:37.287Z,95
2019-05-18T02:38:13.250Z,95
2019-05-18T02:38:49.318Z,95
2019-05-18T02:39:25.294Z,95
2019-05-18T02:40:01.262Z,95
2019-05-18T02:40:37.227Z,95
2019-05-18T02:41:13.379Z,95
2019-05-18T02:41:49.313Z,95
2019-05-18T02:42:25.271Z,95
2019-05-18T02:43:01.223Z,95
2019-05-18T02:43:37.334Z,95
2019-05-18T02:44:13.276Z,95
2019-05-18T02:44:49.258Z,95
2019-05-18T02:45:25.250Z,95
2019-05-18T02:46:01.322Z,95
2019-05-18T02:46:37.311Z,95
2019-05-18T02:47:13.253Z,95
2019-05-18T02:47:49.317Z,95
2019-05-18T02:48:25.328Z,95
2019-05-18T02:49:01.317Z,95
2019-05-18T02:49:37.258Z,95
2019-05-18T02:50:13.372Z,95
2019-05-18T02:50:49.321Z,95
2019-05-18T02:51:25.293Z,95
2019-05-18T02:52:01.284Z,95
2019-05-18T02:52:37.334Z,95
2019-05-18T02:53:13.383Z,95
2019-05-18T02:53:49.289Z,95
2019-05-18T02:54:25.255Z,95
2019-05-18T02:55:01.326Z,95
2019-05-18T02:55:37.311Z,95
2019-05-18T02:56:13.276Z,95
2019-05-18T02:56:49.248Z,95
2019-05-18T02:57:25.337Z,95
2019-05-18T02:58:01.565Z,95
2019-05-18T02:58:37.395Z,95
2019-05-18T02:59:13.264Z,95
2019-05-18T02:59:49.328Z,95
2019-05-18T03:00:25.293Z,95
2019-05-18T03:01:01.283Z,95
2019-05-18T03:01:37.244Z,95
2019-05-18T03:02:13.447Z,95
2019-05-18T03:02:49.308Z,95
2019-05-18T03:03:25.278Z,95
2019-05-18T03:04:01.235Z,95
2019-05-18T03:04:37.357Z,95
2019-05-18T03:05:13.293Z,95
2019-05-18T03:05:49.265Z,95
2019-05-18T03:06:25.268Z,96
2019-05-18T03:07:01.318Z,96
2019-05-18T03:07:37.282Z,95
2019-05-18T03:08:13.268Z,96
2019-05-18T03:08:49.221Z,96
2019-05-18T03:09:25.308Z,96
2019-05-18T03:10:01.297Z,96
2019-05-18T03:10:37.261Z,95
2019-05-18T03:11:13.235Z,96
2019-05-18T03:11:49.306Z,96
2019-05-18T03:12:25.328Z,96
2019-05-18T03:13:01.261Z,96
2019-05-18T03:13:37.260Z,96
2019-05-18T03:14:13.312Z,96
2019-05-18T03:14:49.270Z,96
2019-05-18T03:15:25.265Z,96
2019-05-18T03:16:01.229Z,96
2019-05-18T03:16:49.213Z,96
2019-05-18T03:17:25.351Z,96
2019-05-18T03:18:01.265Z,96
2019-05-18T03:18:37.307Z,96
2019-05-18T03:19:13.228Z,96
2019-05-18T03:19:49.294Z,96
2019-05-18T03:20:25.287Z,96
2019-05-18T03:21:01.252Z,96
2019-05-18T03:21:37.216Z,96
2019-05-18T03:22:13.295Z,96
2019-05-18T03:22:49.292Z,96
2019-05-18T03:23:25.236Z,96
2019-05-18T03:24:01.278Z,96
2019-05-18T03:24:37.299Z,96
2019-05-18T03:25:13.276Z,96
2019-05-18T03:25:49.248Z,96
2019-05-18T03:26:25.370Z,96
2019-05-18T03:27:01.299Z,96
2019-05-18T03:27:37.379Z,96
2019-05-18T03:28:13.262Z,96
2019-05-18T03:28:49.323Z,96
2019-05-18T03:29:25.322Z,96
2019-05-18T03:30:01.264Z,96
2019-05-18T03:30:37.257Z,96
2019-05-18T03:31:13.358Z,96
2019-05-18T03:31:49.327Z,96
2019-05-18T03:32:25.314Z,96
2019-05-18T03:33:01.315Z,96
2019-05-18T03:33:37.362Z,96
2019-05-18T03:34:13.324Z,96
2019-05-18T03:34:49.284Z,96
2019-05-18T03:35:25.222Z,96
2019-05-18T03:36:01.422Z,96
2019-05-18T03:36:37.272Z,96
2019-05-18T03:37:25.280Z,96
2019-05-18T03:38:01.245Z,96
2019-05-18T03:38:37.216Z,96
2019-05-18T03:39:13.297Z,96
2019-05-18T03:39:49.345Z,96
2019-05-18T03:40:25.253Z,96
2019-05-18T03:41:01.239Z,96
2019-05-18T03:41:37.342Z,96
2019-05-18T03:42:13.288Z,96
2019-05-18T03:42:49.246Z,96
2019-05-18T03:43:25.207Z,96
2019-05-18T03:44:01.300Z,96
2019-05-18T03:44:37.367Z,96
2019-05-18T03:45:13.274Z,96
2019-05-18T03:45:49.216Z,96
2019-05-18T03:46:25.298Z,96
2019-05-18T03:47:01.257Z,96
2019-05-18T03:47:37.243Z,96
2019-05-18T03:48:13.209Z,96
2019-05-18T03:48:49.302Z,96
2019-05-18T03:49:28.307Z,96
2019-05-18T03:50:01.244Z,96
2019-05-18T03:50:37.229Z,96
2019-05-18T03:51:13.289Z,96
2019-05-18T03:51:49.260Z,96
2019-05-18T03:52:25.229Z,96
2019-05-18T03:53:01.202Z,96
2019-05-18T03:53:37.296Z,96
2019-05-18T03:54:13.271Z,96
2019-05-18T03:54:49.241Z,96
2019-05-18T03:55:25.235Z,96
2019-05-18T03:56:01.377Z,96
2019-05-18T03:56:37.259Z,96
2019-05-18T03:57:13.257Z,96
2019-05-18T03:57:49.198Z,96
2019-05-18T03:58:25.311Z,96
2019-05-18T03:59:01.319Z,96
2019-05-18T03:59:37.267Z,96
2019-05-18T04:00:13.221Z,96
2019-05-18T04:00:49.281Z,96
2019-05-18T04:01:25.263Z,96
2019-05-18T04:02:01.256Z,96
2019-05-18T04:02:37.353Z,96
2019-05-18T04:03:13.269Z,96
2019-05-18T04:03:49.330Z,96
2019-05-18T04:04:25.231Z,96
2019-05-18T04:05:01.315Z,96
2019-05-18T04:05:37.284Z,96
2019-05-18T04:06:13.287Z,96
2019-05-18T04:06:49.238Z,96
2019-05-18T04:07:25.297Z,96
2019-05-18T04:08:01.271Z,96
2019-05-18T04:08:37.263Z,96
2019-05-18T04:09:13.245Z,96
2019-05-18T04:09:49.554Z,96
2019-05-18T04:10:25.277Z,96
2019-05-18T04:11:01.278Z,96
2019-05-18T04:11:37.209Z,96
2019-05-18T04:12:13.333Z,96
2019-05-18T04:12:49.270Z,96
2019-05-18T04:13:25.266Z,96
2019-05-18T04:14:01.239Z,96
2019-05-18T04:14:37.335Z,96
2019-05-18T04:15:13.279Z,96
2019-05-18T04:15:49.234Z,96
2019-05-18T04:16:25.221Z,96
2019-05-18T04:17:01.313Z,96
2019-05-18T04:17:37.273Z,96
2019-05-18T04:18:13.247Z,96
2019-05-18T04:18:49.227Z,96
2019-05-18T04:19:35.711Z,95
2019-05-18T04:20:37.258Z,95
2019-05-18T04:21:13.206Z,94
2019-05-18T04:21:49.298Z,94
2019-05-18T04:22:25.253Z,94
2019-05-18T04:23:01.311Z,93
2019-05-18T04:23:37.265Z,93
2019-05-18T04:24:13.283Z,93
2019-05-18T04:24:49.247Z,93
2019-05-18T04:25:25.237Z,93
2019-05-18T04:26:01.194Z,92
2019-05-18T04:26:37.354Z,92
2019-05-18T04:27:13.286Z,92
2019-05-18T04:27:49.223Z,92
2019-05-18T04:28:25.202Z,91
2019-05-18T04:29:01.294Z,91
2019-05-18T04:29:37.262Z,91
2019-05-18T04:30:13.231Z,91
2019-05-18T04:30:49.190Z,91
2019-05-18T04:31:25.289Z,90
2019-05-18T04:32:01.233Z,90
2019-05-18T04:32:37.216Z,90
2019-05-18T04:33:13.209Z,90
2019-05-18T04:34:01.211Z,90
2019-05-18T04:34:37.292Z,89
2019-05-18T04:35:13.248Z,89
2019-05-18T04:35:49.210Z,88
2019-05-18T04:36:25.197Z,88
2019-05-18T04:37:01.292Z,87
2019-05-18T04:37:37.239Z,87
2019-05-18T04:38:13.236Z,86
2019-05-18T04:38:49.192Z,86
2019-05-18T04:39:25.284Z,85
2019-05-18T04:40:01.253Z,85
2019-05-18T04:40:37.228Z,85
2019-05-18T04:41:13.179Z,85
2019-05-18T04:41:49.261Z,85
2019-05-18T04:42:25.225Z,84
2019-05-18T04:43:01.253Z,84
2019-05-18T04:43:37.328Z,84
2019-05-18T04:44:13.278Z,84
2019-05-18T04:44:49.238Z,83
2019-05-18T04:45:25.211Z,82
2019-05-18T04:46:01.295Z,82
2019-05-18T04:46:37.267Z,82
2019-05-18T04:47:13.229Z,81
2019-05-18T04:47:49.605Z,81
2019-05-18T04:48:25.279Z,80
2019-05-18T04:49:01.286Z,80
2019-05-18T04:49:37.225Z,80
2019-05-18T04:50:13.228Z,80
2019-05-18T04:50:49.289Z,79
2019-05-18T04:51:25.280Z,78
2019-05-18T04:52:01.219Z,78
2019-05-18T04:52:37.221Z,78
2019-05-18T04:53:13.286Z,79
2019-05-18T04:53:49.265Z,79
2019-05-18T04:54:25.220Z,79
2019-05-18T04:55:01.197Z,79
2019-05-18T04:55:37.335Z,79
2019-05-18T04:56:13.258Z,79
2019-05-18T04:56:49.215Z,79
2019-05-18T04:57:25.200Z,80
2019-05-18T04:58:01.268Z,80
2019-05-18T04:58:37.257Z,81
2019-05-18T04:59:13.228Z,81
2019-05-18T04:59:49.178Z,81
2019-05-18T05:00:25.269Z,81
2019-05-18T05:01:01.251Z,81
2019-05-18T05:01:37.256Z,81
2019-05-18T05:02:13.253Z,81
2019-05-18T05:02:49.267Z,81
2019-05-18T05:03:25.240Z,81
2019-05-18T05:04:01.468Z,81
2019-05-18T05:04:37.180Z,81
2019-05-18T05:05:13.262Z,81
2019-05-18T05:05:49.239Z,81
2019-05-18T05:06:25.250Z,81
2019-05-18T05:07:01.184Z,82
2019-05-18T05:07:37.305Z,82
2019-05-18T05:08:13.219Z,82
2019-05-18T05:08:49.184Z,81
2019-05-18T05:09:25.195Z,81
2019-05-18T05:10:04.941Z,81
2019-05-18T05:10:37.216Z,82
2019-05-18T05:11:13.204Z,81
2019-05-18T05:11:49.215Z,81
2019-05-18T05:12:25.252Z,81
2019-05-18T05:13:01.229Z,81
2019-05-18T05:13:37.196Z,80
2019-05-18T05:14:13.199Z,80
2019-05-18T05:14:49.244Z,80
2019-05-18T05:15:25.230Z,81
2019-05-18T05:16:01.193Z,81
2019-05-18T05:16:37.153Z,81
2019-05-18T05:17:13.277Z,81
2019-05-18T05:17:49.217Z,81
2019-05-18T05:18:25.187Z,81
2019-05-18T05:19:01.222Z,81
2019-05-18T05:19:37.235Z,81
2019-05-18T05:20:20.645Z,81
2019-05-18T05:20:49.186Z,81
2019-05-18T05:21:25.162Z,82
2019-05-18T05:22:01.241Z,81
2019-05-18T05:22:37.242Z,81
2019-05-18T05:23:13.177Z,81
2019-05-18T05:24:01.387Z,81
2019-05-18T05:24:37.141Z,81
2019-05-18T05:25:25.171Z,81
2019-05-18T05:26:01.242Z,81
2019-05-18T05:26:40.271Z,81
2019-05-18T05:27:13.177Z,81
2019-05-18T05:27:49.159Z,81
2019-05-18T05:28:25.232Z,81
2019-05-18T05:29:01.212Z,81
2019-05-18T05:29:37.179Z,81
2019-05-18T05:30:13.390Z,81
2019-05-18T05:30:49.227Z,81
2019-05-18T05:31:25.227Z,82
2019-05-18T05:32:01.164Z,81
2019-05-18T05:32:37.141Z,81
2019-05-18T05:33:13.247Z,81
2019-05-18T05:34:01.260Z,81
2019-05-18T05:34:37.213Z,81
2019-05-18T05:35:13.158Z,81
2019-05-18T05:35:49.280Z,80
2019-05-18T05:36:25.216Z,80
2019-05-18T05:37:01.219Z,80
2019-05-18T05:37:37.242Z,80
2019-05-18T05:38:13.296Z,79
2019-05-18T05:38:49.228Z,79
2019-05-18T05:39:25.191Z,79
2019-05-18T05:40:01.160Z,79
2019-05-18T05:40:37.242Z,78
2019-05-18T05:41:17.216Z,78
2019-05-18T05:41:49.188Z,78
2019-05-18T05:42:37.193Z,78
2019-05-18T05:43:13.187Z,78
2019-05-18T05:43:49.525Z,78
2019-05-18T05:44:25.218Z,79
2019-05-18T05:45:01.219Z,79
2019-05-18T05:45:37.143Z,79
2019-05-18T05:46:13.245Z,77
2019-05-18T05:46:49.204Z,77
2019-05-18T05:47:25.182Z,77
2019-05-18T05:48:01.155Z,76
2019-05-18T05:48:37.231Z,76
2019-05-18T05:49:13.223Z,76
2019-05-18T05:49:49.179Z,76
2019-05-18T05:50:37.018Z,76
2019-05-18T05:51:37.202Z,76
2019-05-18T05:52:13.174Z,75
2019-05-18T05:52:49.158Z,75
2019-05-18T05:53:25.227Z,75
2019-05-18T05:54:01.214Z,74
2019-05-18T05:54:37.182Z,74
2019-05-18T05:55:13.143Z,74
2019-05-18T05:55:49.230Z,73
2019-05-18T05:56:25.186Z,72
2019-05-18T05:57:01.163Z,72
2019-05-18T05:57:37.159Z,72
2019-05-18T05:58:13.228Z,72
2019-05-18T05:58:49.194Z,71
2019-05-18T05:59:25.167Z,71
2019-05-18T06:00:01.158Z,70
2019-05-18T06:00:49.171Z,70
2019-05-18T06:01:25.220Z,70
2019-05-18T06:02:01.213Z,70
2019-05-18T06:02:37.199Z,70
2019-05-18T06:03:13.127Z,71
2019-05-18T06:03:49.213Z,72
2019-05-18T06:04:25.215Z,72
2019-05-18T06:05:01.198Z,72
2019-05-18T06:05:49.153Z,71
2019-05-18T06:06:25.124Z,71
2019-05-18T06:07:01.216Z,70
2019-05-18T06:07:37.187Z,70
2019-05-18T06:08:13.198Z,70
2019-05-18T06:08:49.124Z,70
2019-05-18T06:09:25.219Z,69
2019-05-18T06:10:01.202Z,69
2019-05-18T06:10:37.169Z,69
2019-05-18T06:11:13.126Z,69
2019-05-18T06:11:49.205Z,69
2019-05-18T06:12:25.192Z,70
2019-05-18T06:13:01.134Z,70
2019-05-18T06:13:37.123Z,70
2019-05-18T06:14:13.208Z,70
2019-05-18T06:14:49.194Z,69
2019-05-18T06:15:25.141Z,68
2019-05-18T06:16:01.122Z,68
2019-05-18T06:16:37.200Z,67
2019-05-18T06:17:13.188Z,67
2019-05-18T06:17:49.131Z,68
2019-05-18T06:18:25.114Z,68
2019-05-18T06:19:01.197Z,68
2019-05-18T06:19:37.235Z,68
2019-05-18T06:20:13.179Z,68
2019-05-18T06:20:52.470Z,68
2019-05-18T06:21:25.215Z,68
2019-05-18T06:22:01.161Z,69
2019-05-18T06:22:37.265Z,69
2019-05-18T06:23:13.127Z,67
2019-05-18T06:23:49.192Z,67
2019-05-18T06:24:25.185Z,67
2019-05-18T06:25:01.131Z,67
2019-05-18T06:25:37.116Z,67
2019-05-18T06:26:13.191Z,67
2019-05-18T06:26:49.246Z,66
2019-05-18T06:27:25.181Z,65
2019-05-18T06:28:01.100Z,65
2019-05-18T06:28:37.204Z,65
2019-05-18T06:29:13.160Z,65
2019-05-18T06:29:49.131Z,65
2019-05-18T06:30:25.113Z,65
2019-05-18T06:31:01.189Z,65
2019-05-18T06:31:37.155Z,65
2019-05-18T06:32:13.134Z,65
2019-05-18T06:32:49.208Z,65
2019-05-18T06:33:25.202Z,65
2019-05-18T06:34:01.153Z,64
2019-05-18T06:34:37.129Z,64
2019-05-18T06:35:13.207Z,64
2019-05-18T06:35:49.180Z,64
2019-05-18T06:36:25.143Z,64
2019-05-18T06:37:01.114Z,64
2019-05-18T06:37:37.215Z,62
2019-05-18T06:38:13.167Z,62
2019-05-18T06:38:49.142Z,62
2019-05-18T06:39:25.110Z,61
2019-05-18T06:40:25.143Z,60
2019-05-18T06:41:01.107Z,60
2019-05-18T06:41:37.200Z,60
2019-05-18T06:42:13.207Z,60
2019-05-18T06:43:01.186Z,60
2019-05-18T06:43:37.136Z,60
2019-05-18T06:44:13.119Z,61
2019-05-18T06:45:01.125Z,61
2019-05-18T06:45:37.195Z,61
2019-05-18T06:46:13.173Z,61
2019-05-18T06:46:49.138Z,61
2019-05-18T06:47:25.111Z,61
2019-05-18T06:48:01.212Z,59
2019-05-18T06:48:37.173Z,60
2019-05-18T06:49:13.167Z,60
2019-05-18T06:49:49.112Z,59
2019-05-18T06:50:25.209Z,59
2019-05-18T06:51:08.230Z,59
2019-05-18T06:51:37.125Z,58
2019-05-18T06:52:13.101Z,58
2019-05-18T06:52:49.199Z,58
2019-05-18T06:53:25.171Z,60
2019-05-18T06:54:01.143Z,61
2019-05-18T06:55:13.191Z,60
2019-05-18T06:55:49.216Z,59
2019-05-18T06:56:25.125Z,60
2019-05-18T06:57:01.098Z,60
2019-05-18T06:57:37.179Z,61
2019-05-18T06:58:13.185Z,60
2019-05-18T06:59:01.166Z,59
2019-05-18T06:59:49.137Z,59
2019-05-18T07:00:25.109Z,59
2019-05-18T07:01:49.093Z,60
2019-05-18T07:02:25.167Z,60
2019-05-18T07:03:37.146Z,61
2019-05-18T07:04:25.142Z,61
2019-05-18T07:05:01.211Z,61
2019-05-18T07:05:37.194Z,61
2019-05-18T07:06:13.138Z,60
2019-05-18T07:06:49.129Z,61
2019-05-18T07:07:25.078Z,61
2019-05-18T07:08:01.176Z,61
2019-05-18T07:08:49.164Z,60
2019-05-18T07:09:25.211Z,60
2019-05-18T07:10:13.143Z,60
2019-05-18T07:11:01.184Z,60
2019-05-18T07:11:49.127Z,61
2019-05-18T07:12:25.120Z,61
2019-05-18T07:13:01.077Z,60
2019-05-18T07:13:37.189Z,61
2019-05-18T07:14:26.586Z,61
2019-05-18T07:15:01.258Z,61
2019-05-18T07:15:37.096Z,61
2019-05-18T07:16:13.077Z,61
2019-05-18T07:16:49.171Z,61
2019-05-18T07:17:25.127Z,60
2019-05-18T07:18:01.100Z,61
2019-05-18T07:18:37.068Z,61
2019-05-18T07:19:13.153Z,61
2019-05-18T07:19:49.147Z,60
2019-05-18T07:20:25.371Z,60
2019-05-18T07:21:01.055Z,61
2019-05-18T07:21:49.067Z,61
2019-05-18T07:22:37.109Z,61
2019-05-18T07:23:13.190Z,60
2019-05-18T07:24:01.162Z,62
2019-05-18T07:24:37.142Z,61
2019-05-18T07:25:37.160Z,61
2019-05-18T07:26:25.144Z,59
2019-05-18T07:27:25.067Z,58
2019-05-18T07:28:01.157Z,58
2019-05-18T07:28:49.159Z,58
2019-05-18T07:29:37.139Z,58
2019-05-18T07:30:13.125Z,58
2019-05-18T07:30:49.108Z,58
2019-05-18T07:31:25.053Z,59
2019-05-18T07:32:01.167Z,58
2019-05-18T07:32:37.138Z,59
2019-05-18T07:33:13.116Z,59
2019-05-18T07:34:13.149Z,59
2019-05-18T07:34:49.117Z,58
2019-05-18T07:35:25.084Z,59
2019-05-18T07:36:13.066Z,59
2019-05-18T07:36:49.133Z,59
2019-05-18T07:37:25.265Z,59
2019-05-18T07:38:01.069Z,59
2019-05-18T07:38:37.180Z,59
2019-05-18T07:39:37.064Z,58
2019-05-18T07:40:25.071Z,59
2019-05-18T07:41:01.157Z,59
2019-05-18T07:41:47.619Z,59
2019-05-18T07:42:49.074Z,59
2019-05-18T07:43:25.182Z,60
2019-05-18T07:44:01.133Z,60
2019-05-18T07:44:49.120Z,60
2019-05-18T07:45:25.090Z,60
2019-05-18T07:46:37.186Z,60
2019-05-18T07:48:01.128Z,60
2019-05-18T07:48:37.086Z,59
2019-05-18T07:49:13.076Z,58
2019-05-18T07:50:13.094Z,58
2019-05-18T07:50:49.075Z,59
2019-05-18T07:52:37.104Z,57
2019-05-18T07:54:01.056Z,57
2019-05-18T07:54:37.657Z,56
2019-05-18T07:56:37.142Z,56
2019-05-18T07:57:13.137Z,56
2019-05-18T07:59:13.152Z,56
2019-05-18T08:00:25.088Z,55
2019-05-18T08:01:01.224Z,54
2019-05-18T08:01:37.182Z,54
2019-05-18T08:02:13.124Z,52
2019-05-18T08:03:49.092Z,51
2019-05-18T08:04:25.142Z,51
2019-05-18T08:05:13.149Z,50
2019-05-18T08:05:49.189Z,50
2019-05-18T08:06:25.144Z,50
2019-05-18T08:07:01.077Z,50
2019-05-18T08:08:01.142Z,50
2019-05-18T08:10:25.167Z,51
2019-05-18T08:11:01.106Z,50
2019-05-18T08:11:37.056Z,50
2019-05-18T08:12:25.101Z,49
2019-05-18T08:13:13.108Z,48
2019-05-18T08:13:49.157Z,47
2019-05-18T08:14:25.091Z,48
2019-05-18T08:15:01.070Z,48
2019-05-18T08:15:52.270Z,47
2019-05-18T08:16:37.079Z,47
2019-05-18T08:17:13.028Z,48
2019-05-18T08:18:01.053Z,48
2019-05-18T08:19:13.120Z,47
2019-05-18T08:20:25.024Z,47
2019-05-18T08:21:13.027Z,47
2019-05-18T08:21:54.172Z,48
2019-05-18T08:22:25.070Z,48
2019-05-18T08:23:13.086Z,48
2019-05-18T08:23:49.048Z,48
2019-05-18T08:24:25.021Z,47
2019-05-18T08:25:49.105Z,48
2019-05-18T08:26:25.101Z,48
2019-05-18T08:28:25.014Z,48
2019-05-18T08:29:01.110Z,48
2019-05-18T08:29:49.110Z,47
2019-05-18T08:30:25.071Z,47
2019-05-18T08:31:01.033Z,47
2019-05-18T08:31:37.021Z,48
2019-05-18T08:32:13.101Z,47
2019-05-18T08:32:49.064Z,47
2019-05-18T08:33:25.045Z,47
2019-05-18T08:34:13.040Z,46
2019-05-18T08:35:13.063Z,47
2019-05-18T08:35:49.040Z,47
2019-05-18T08:37:13.016Z,48
2019-05-18T08:37:49.109Z,48
2019-05-18T08:38:49.116Z,48
2019-05-18T08:39:25.098Z,48
2019-05-18T08:40:37.029Z,47
2019-05-18T08:41:13.181Z,46
2019-05-18T08:41:49.595Z,46
2019-05-18T08:42:37.111Z,46
2019-05-18T08:43:13.062Z,45
2019-05-18T08:44:01.066Z,45
2019-05-18T08:44:49.054Z,45
2019-05-18T08:45:25.104Z,45
2019-05-18T08:46:01.115Z,45
2019-05-18T08:46:37.071Z,45
2019-05-18T08:47:13.041Z,46
2019-05-18T08:47:49.053Z,46
2019-05-18T08:48:25.114Z,46
2019-05-18T08:49:01.076Z,45
2019-05-18T08:50:01.105Z,46
2019-05-18T08:50:37.066Z,45
2019-05-18T08:51:13.040Z,45
2019-05-18T08:51:49.003Z,44
2019-05-18T08:52:25.115Z,45
2019-05-18T08:53:13.112Z,45
2019-05-18T08:53:49.140Z,44
2019-05-18T08:54:25.036Z,44
2019-05-18T08:55:01.008Z,45
2019-05-18T08:55:37.107Z,45
2019-05-18T08:56:13.075Z,45
2019-05-18T08:57:25.006Z,45
2019-05-18T08:58:01.085Z,46
2019-05-18T08:58:37.090Z,46
2019-05-18T08:59:13.069Z,47
2019-05-18T08:59:49.004Z,46
2019-05-18T09:00:25.100Z,47
2019-05-18T09:01:01.062Z,47
2019-05-18T09:01:37.039Z,47
2019-05-18T09:02:13.010Z,46
2019-05-18T09:02:49.096Z,47
2019-05-18T09:03:25.077Z,47
2019-05-18T09:04:01.076Z,46
2019-05-18T09:04:37.001Z,46
2019-05-18T09:05:13.107Z,46